Time;durP1;ratioP1;P1;durP2;ratioP2;P2;SDS_P1;SDS_P2;PMS_P1;PMS_P2;Temp;Humidity;BMP_temperature;BMP_pressure;BME280_temperature;BME280_humidity;BME280_pressure;Samples;Min_cycle;Max_cycle;Signal;HPM_P1;HPM_P2
2021/06/15 05:10:22;;;;;;;6.28;3.60;;;14.40;83.40;;;;;;5046014;28;20182;-91
2021/06/15 05:15:45;;;;;;;8.32;3.60;;;14.60;82.20;;;;;;5024164;28;20195;-87
2021/06/15 05:18:13;;;;;;;6.43;3.60;;;14.60;82.20;;;;;;5037958;28;20236;-88
2021/06/15 05:20:41;;;;;;;5.55;3.08;;;14.70;79.40;;;;;;5041598;28;20705;-85
2021/06/15 05:23:15;;;;;;;9.43;3.53;;;14.70;77.10;;;;;;5031542;28;20222;-89
2021/06/15 05:25:42;;;;;;;6.43;3.88;;;14.80;77.20;;;;;;5033199;28;20201;-91
2021/06/15 05:28:09;;;;;;;5.90;3.92;;;15.00;77.30;;;;;;5040380;28;20230;-91
2021/06/15 05:30:36;;;;;;;9.68;4.20;;;15.10;77.40;;;;;;5028039;28;20198;-89
2021/06/15 05:33:04;;;;;;;6.65;3.75;;;15.10;77.40;;;;;;5030810;28;20226;-89
2021/06/15 05:35:31;;;;;;;6.03;3.80;;;15.30;77.50;;;;;;5034674;28;20207;-89
2021/06/15 05:37:59;;;;;;;9.93;3.70;;;15.40;77.60;;;;;;5027900;28;20314;-89
2021/06/15 05:40:27;;;;;;;8.60;3.90;;;15.50;76.40;;;;;;5032812;28;20233;-89
2021/06/15 05:42:54;;;;;;;6.85;3.60;;;15.80;74.40;;;;;;5033106;28;20229;-90
2021/06/15 05:45:21;;;;;;;5.22;3.67;;;16.00;72.80;;;;;;5039782;28;20253;-90
2021/06/15 05:47:52;;;;;;;6.00;3.70;;;16.20;71.30;;;;;;5031059;28;20245;-89
2021/06/15 05:50:19;;;;;;;8.75;4.15;;;16.40;69.50;;;;;;5023280;28;20198;-90
2021/06/15 05:52:46;;;;;;;6.28;3.70;;;16.60;67.50;;;;;;5021684;28;20231;-91
2021/06/15 05:55:14;;;;;;;4.53;3.65;;;16.70;67.80;;;;;;5022807;28;20577;-92
2021/06/15 05:57:42;;;;;;;6.22;3.20;;;16.80;67.50;;;;;;5017766;28;20227;-90
2021/06/15 06:00:11;;;;;;;6.40;3.75;;;16.80;67.30;;;;;;5021038;28;20223;-90
2021/06/15 06:02:38;;;;;;;9.63;3.45;;;16.90;65.50;;;;;;5016868;28;20225;-91
2021/06/15 06:08:04;;;;;;;4.50;3.30;;;16.90;64.50;;;;;;5001477;28;20269;-89
2021/06/15 06:08:09;;;;;;;5.68;3.65;;;17.00;64.30;;;;;;5014989;28;20253;-90
2021/06/15 06:10:38;;;;;;;10.75;3.58;;;17.10;64.80;;;;;;5018720;28;20204;-89
2021/06/15 06:13:11;;;;;;;8.20;3.58;;;17.10;65.50;;;;;;5018325;28;20231;-90
2021/06/15 06:15:44;;;;;;;7.00;3.90;;;17.20;65.10;;;;;;5014206;28;20290;-91
2021/06/15 06:18:13;;;;;;;5.05;3.30;;;17.30;65.20;;;;;;5011955;28;20227;-91
2021/06/15 06:20:40;;;;;;;5.88;3.42;;;17.40;65.20;;;;;;5016365;28;20227;-90
2021/06/15 06:23:09;;;;;;;10.52;3.35;;;17.50;63.10;;;;;;5019115;28;20741;-91
2021/06/15 06:25:37;;;;;;;5.05;2.97;;;17.50;61.10;;;;;;5019353;28;20631;-90
2021/06/15 06:28:04;;;;;;;7.70;3.25;;;17.60;60.20;;;;;;5007730;28;20241;-90
2021/06/15 06:30:33;;;;;;;7.45;3.40;;;17.70;59.30;;;;;;5019909;28;20612;-90
2021/06/15 06:33:00;;;;;;;8.10;3.13;;;17.80;59.70;;;;;;5018762;28;20373;-90
2021/06/15 06:35:27;;;;;;;5.18;3.20;;;17.90;59.20;;;;;;5002467;28;20261;-91
2021/06/15 06:37:54;;;;;;;8.43;3.42;;;17.90;59.50;;;;;;5017171;28;20226;-91
2021/06/15 06:40:21;;;;;;;8.13;3.35;;;18.00;61.60;;;;;;5025782;28;20234;-90
2021/06/15 06:42:47;;;;;;;5.10;3.53;;;18.10;61.00;;;;;;5006761;28;21437;-90
2021/06/15 06:45:15;;;;;;;7.95;3.15;;;18.20;56.10;;;;;;5018469;28;20212;-90
2021/06/15 06:47:43;;;;;;;12.23;3.53;;;18.40;54.70;;;;;;5022977;28;20574;-91
2021/06/15 06:50:11;;;;;;;6.00;2.92;;;18.50;54.60;;;;;;5001109;28;20230;-90
2021/06/15 06:52:38;;;;;;;8.45;3.70;;;18.70;53.00;;;;;;5014339;28;20223;-91
2021/06/15 06:55:07;;;;;;;7.78;3.30;;;18.80;51.50;;;;;;5002110;28;20250;-90
2021/06/15 06:57:34;;;;;;;9.13;3.20;;;19.00;49.30;;;;;;5018322;28;20226;-88
2021/06/15 07:00:01;;;;;;;6.13;3.10;;;19.10;47.60;;;;;;5005241;28;20789;-87
2021/06/15 07:02:28;;;;;;;11.45;3.28;;;19.20;48.10;;;;;;5014790;28;20227;-87
2021/06/15 07:04:56;;;;;;;8.27;2.88;;;19.30;48.40;;;;;;4996154;28;20208;-90
2021/06/15 07:07:23;;;;;;;6.45;3.13;;;19.40;45.00;;;;;;5014194;28;20306;-91
2021/06/15 07:09:50;;;;;;;7.38;3.08;;;19.70;47.00;;;;;;4994428;28;20611;-88
2021/06/15 07:12:18;;;;;;;5.65;3.13;;;20.10;47.10;;;;;;5025430;28;20242;-89
2021/06/15 07:14:45;;;;;;;9.05;2.70;;;20.80;41.40;;;;;;4997703;28;20199;-91
2021/06/15 07:17:12;;;;;;;3.92;2.70;;;22.60;38.60;;;;;;5009853;28;20231;-87
2021/06/15 07:19:39;;;;;;;3.78;2.47;;;25.60;30.60;;;;;;4990727;28;20254;-87
2021/06/15 07:22:08;;;;;;;7.30;3.33;;;28.20;23.50;;;;;;5015627;28;20763;-87
2021/06/15 07:24:37;;;;;;;5.75;3.05;;;29.00;21.60;;;;;;5014455;28;20230;-87
2021/06/15 07:27:05;;;;;;;3.95;2.92;;;28.20;22.10;;;;;;5010230;28;20227;-87
2021/06/15 07:29:32;;;;;;;6.53;3.03;;;27.20;23.90;;;;;;4996275;28;20203;-87
2021/06/15 07:31:59;;;;;;;7.53;3.08;;;26.10;25.10;;;;;;5010207;28;20231;-88
2021/06/15 07:34:26;;;;;;;6.38;3.05;;;25.20;26.70;;;;;;5016143;28;20195;-85
2021/06/15 07:36:53;;;;;;;4.40;2.90;;;24.40;27.90;;;;;;5012140;28;20250;-87
2021/06/15 07:39:22;;;;;;;4.80;3.08;;;23.70;31.50;;;;;;5015911;28;20702;-90
2021/06/15 07:41:49;;;;;;;6.70;2.97;;;23.10;33.10;;;;;;5018299;28;20237;-89
2021/06/15 07:44:16;;;;;;;3.42;2.90;;;22.50;33.30;;;;;;5025646;28;20285;-91
2021/06/15 07:46:43;;;;;;;5.13;3.08;;;22.10;33.80;;;;;;5018772;28;20223;-88
2021/06/15 07:49:10;;;;;;;7.97;2.83;;;22.00;34.50;;;;;;5013947;28;20617;-89
2021/06/15 07:51:38;;;;;;;5.03;3.00;;;22.00;33.70;;;;;;5016575;28;20230;-89
2021/06/15 07:54:06;;;;;;;7.07;3.33;;;22.00;33.80;;;;;;5017779;28;20227;-89
2021/06/15 07:56:35;;;;;;;9.68;3.33;;;22.00;33.80;;;;;;5015637;28;20238;-90
2021/06/15 07:59:02;;;;;;;5.78;3.05;;;22.00;35.70;;;;;;5014531;28;20207;-88
2021/06/15 08:01:29;;;;;;;8.65;3.45;;;22.10;36.20;;;;;;5024435;28;20746;-89
2021/06/15 08:03:56;;;;;;;9.98;3.17;;;22.30;38.30;;;;;;5016984;28;20202;-89
2021/06/15 08:06:23;;;;;;;7.32;3.70;;;22.50;34.20;;;;;;5025530;28;20206;-89
2021/06/15 08:08:51;;;;;;;9.40;3.65;;;22.80;34.50;;;;;;5015255;28;20663;-89
2021/06/15 08:11:18;;;;;;;11.73;3.58;;;23.10;35.90;;;;;;5011208;28;20203;-90
2021/06/15 08:13:47;;;;;;;9.18;3.55;;;23.40;34.90;;;;;;5003869;28;20201;-87
2021/06/15 08:16:14;;;;;;;9.93;3.80;;;24.60;33.30;;;;;;5014759;28;20210;-87
2021/06/15 08:18:41;;;;;;;8.23;3.50;;;26.00;28.90;;;;;;5012706;28;20199;-87
2021/06/15 08:21:08;;;;;;;13.57;3.63;;;27.60;25.10;;;;;;5015395;28;20218;-87
2021/06/15 08:23:35;;;;;;;11.60;3.35;;;29.40;22.90;;;;;;5014060;28;20222;-88
2021/06/15 08:26:02;;;;;;;6.28;3.25;;;30.80;18.30;;;;;;5010099;28;20217;-87
2021/06/15 08:28:29;;;;;;;4.50;3.58;;;32.90;16.70;;;;;;5012542;28;20227;-88
2021/06/15 08:30:58;;;;;;;8.13;3.33;;;33.90;14.80;;;;;;5006334;28;20214;-87
2021/06/15 08:33:26;;;;;;;6.57;3.83;;;34.90;11.90;;;;;;5007527;28;20621;-87
2021/06/15 08:35:53;;;;;;;8.23;3.90;;;35.20;12.00;;;;;;5008338;28;20689;-86
2021/06/15 08:38:20;;;;;;;5.35;4.10;;;35.80;9.90;;;;;;5015292;28;20229;-87
2021/06/15 08:40:49;;;;;;;7.97;3.83;;;36.40;10.20;;;;;;4999843;28;20706;-89
2021/06/15 08:43:17;;;;;;;7.25;4.57;;;37.10;10.50;;;;;;5015262;28;20698;-87
2021/06/15 08:45:44;;;;;;;8.13;4.50;;;37.20;9.30;;;;;;5013486;28;20199;-87
2021/06/15 08:48:14;;;;;;;9.02;4.80;;;37.20;10.10;;;;;;5015058;28;20225;-86
2021/06/15 08:50:41;;;;;;;7.18;4.72;;;37.10;10.50;;;;;;5007982;28;20560;-87
2021/06/15 08:53:09;;;;;;;6.65;4.63;;;38.70;10.50;;;;;;5014833;28;20230;-88
2021/06/15 08:55:38;;;;;;;5.43;4.20;;;38.60;8.00;;;;;;5011344;28;20676;-87
2021/06/15 08:58:24;;;;;;;5.32;4.70;;;37.10;7.40;;;;;;4995709;28;20234;-87
2021/06/15 09:00:51;;;;;;;6.78;5.25;;;37.60;7.80;;;;;;5011529;28;20218;-89
2021/06/15 09:03:20;;;;;;;4.60;4.20;;;37.90;9.00;;;;;;5015366;28;20230;-89
2021/06/15 09:05:47;;;;;;;6.32;5.18;;;37.90;8.00;;;;;;5015839;28;20206;-87
2021/06/15 09:08:15;;;;;;;6.60;5.05;;;39.20;7.30;;;;;;5006536;28;20239;-88
2021/06/15 09:10:44;;;;;;;6.05;4.50;;;38.50;6.70;;;;;;5011857;28;20658;-87
2021/06/15 09:13:33;;;;;;;8.02;4.95;;;38.20;5.60;;;;;;5012102;28;20587;-90
2021/06/15 09:16:19;;;;;;;6.57;4.60;;;38.20;6.70;;;;;;5011934;28;20211;-88
2021/06/15 09:18:48;;;;;;;5.50;4.57;;;38.80;6.30;;;;;;5017096;28;20214;-87
2021/06/15 09:21:38;;;;;;;5.90;5.30;;;38.90;4.70;;;;;;4998508;28;20852;-87
2021/06/15 09:24:07;;;;;;;5.40;4.90;;;38.80;4.70;;;;;;5013508;28;20203;-89
2021/06/15 09:27:05;;;;;;;6.22;4.90;;;39.40;3.90;;;;;;5007174;28;20233;-89
2021/06/15 09:29:37;;;;;;;5.35;4.70;;;39.10;4.20;;;;;;5014243;28;20191;-89
2021/06/15 09:32:05;;;;;;;5.07;4.60;;;38.20;5.00;;;;;;5003426;28;20219;-88
2021/06/15 09:34:34;;;;;;;6.88;4.80;;;38.50;5.90;;;;;;5010863;28;20206;-88
2021/06/15 09:37:05;;;;;;;7.43;4.72;;;38.70;3.60;;;;;;5008101;28;20698;-89
2021/06/15 09:39:33;;;;;;;12.57;11.45;;;38.90;5.40;;;;;;5014185;28;20209;-89
2021/06/15 09:42:00;;;;;;;5.00;4.57;;;38.20;3.70;;;;;;5009647;28;20230;-89
2021/06/15 09:44:30;;;;;;;5.28;4.30;;;39.00;3.80;;;;;;5014443;28;20203;-86
2021/06/15 09:46:58;;;;;;;5.18;4.78;;;39.60;4.50;;;;;;5015830;28;20230;-87
2021/06/15 09:49:36;;;;;;;5.32;4.88;;;39.60;5.10;;;;;;5014277;28;20202;-86
2021/06/15 09:52:19;;;;;;;8.50;5.63;;;39.30;4.70;;;;;;5015548;28;20246;-87
2021/06/15 09:54:48;;;;;;;5.85;5.20;;;39.40;5.60;;;;;;5010955;28;20215;-87
2021/06/15 09:57:26;;;;;;;8.20;4.90;;;38.80;3.30;;;;;;5014885;28;20727;-87
2021/06/15 10:00:10;;;;;;;5.50;5.00;;;38.30;4.80;;;;;;5013523;28;20269;-88
2021/06/15 10:02:49;;;;;;;5.75;5.25;;;38.30;5.50;;;;;;5013136;28;20227;-87
2021/06/15 10:05:39;;;;;;;7.22;4.55;;;37.80;7.30;;;;;;5006159;28;20673;-88
2021/06/15 10:08:08;;;;;;;5.70;5.07;;;37.70;5.60;;;;;;5014787;28;20257;-87
2021/06/15 10:10:37;;;;;;;6.03;5.10;;;37.70;5.70;;;;;;5015069;28;20222;-86
2021/06/15 10:13:06;;;;;;;6.30;5.70;;;37.50;4.80;;;;;;5007257;28;20223;-87
2021/06/15 10:15:33;;;;;;;6.32;5.72;;;37.70;5.80;;;;;;4993725;28;20250;-87
2021/06/15 10:18:01;;;;;;;5.90;5.40;;;37.40;7.00;;;;;;5016528;28;20674;-88
2021/06/15 10:20:31;;;;;;;9.40;6.57;;;37.70;6.40;;;;;;5015573;28;20222;-87
2021/06/15 10:23:00;;;;;;;5.43;5.00;;;37.50;7.90;;;;;;4992568;28;20611;-88
2021/06/15 10:25:30;;;;;;;6.10;5.50;;;37.80;6.90;;;;;;5011844;28;20203;-88
2021/06/15 10:27:59;;;;;;;5.15;4.75;;;37.50;7.20;;;;;;5014311;28;20223;-88
2021/06/15 10:30:31;;;;;;;7.18;5.85;;;37.40;9.10;;;;;;5012297;28;20643;-88
2021/06/15 10:33:02;;;;;;;4.93;4.43;;;36.80;7.20;;;;;;5004217;28;20269;-88
2021/06/15 10:35:47;;;;;;;5.05;4.63;;;37.00;7.60;;;;;;5013338;28;20210;-87
2021/06/15 10:38:19;;;;;;;6.65;4.50;;;36.80;8.50;;;;;;5011368;28;20733;-88
2021/06/15 10:40:56;;;;;;;4.85;4.43;;;36.50;10.20;;;;;;5016929;28;20218;-86
2021/06/15 10:43:32;;;;;;;6.78;4.22;;;35.80;9.90;;;;;;5016135;28;20220;-88
2021/06/15 10:46:06;;;;;;;6.35;4.55;;;36.70;10.30;;;;;;5007959;28;20202;-88
2021/06/15 10:48:43;;;;;;;6.25;4.43;;;36.50;10.20;;;;;;5009545;28;20223;-88
2021/06/15 10:51:45;;;;;;;9.60;5.00;;;36.20;10.10;;;;;;4994937;28;20282;-88
2021/06/15 10:54:32;;;;;;;7.18;4.25;;;36.40;10.20;;;;;;5015329;28;20861;-88
2021/06/15 10:57:19;;;;;;;4.05;3.50;;;36.50;9.50;;;;;;5012095;28;20234;-88
2021/06/15 11:00:14;;;;;;;4.88;3.95;;;35.70;9.20;;;;;;5009711;28;20286;-88
2021/06/15 11:03:02;;;;;;;5.97;3.67;;;35.60;10.20;;;;;;5022979;28;20301;-89
2021/06/15 11:05:40;;;;;;;6.50;3.88;;;34.60;11.90;;;;;;4994978;28;20286;-88
2021/06/15 11:08:25;;;;;;;5.75;3.38;;;34.00;14.20;;;;;;5015042;28;20222;-87
2021/06/15 11:10:55;;;;;;;4.95;3.65;;;33.20;16.80;;;;;;5011004;28;20326;-87
2021/06/15 11:13:41;;;;;;;6.45;3.25;;;32.50;15.50;;;;;;5004262;28;20240;-87
2021/06/15 11:16:21;;;;;;;4.45;3.33;;;31.60;15.70;;;;;;5001172;28;20639;-87
2021/06/15 11:19:26;;;;;;;6.80;3.22;;;31.00;16.60;;;;;;5020133;28;20206;-87
2021/06/15 11:21:55;;;;;;;7.70;3.08;;;30.40;17.10;;;;;;5018196;28;20238;-87
2021/06/15 11:24:25;;;;;;;6.85;2.90;;;30.10;16.70;;;;;;5016434;28;20205;-89
2021/06/15 11:26:54;;;;;;;5.47;2.85;;;30.10;17.80;;;;;;5018192;28;20575;-88
2021/06/15 11:29:31;;;;;;;4.45;3.00;;;30.00;18.00;;;;;;5012991;28;20681;-89
2021/06/15 11:32:17;;;;;;;6.13;2.92;;;29.80;19.00;;;;;;5015216;28;20268;-88
2021/06/15 11:35:17;;;;;;;3.60;2.53;;;29.70;16.50;;;;;;4982810;28;20202;-88
2021/06/15 11:37:47;;;;;;;5.68;3.00;;;29.50;18.90;;;;;;5007680;28;20772;-90
2021/06/15 11:40:27;;;;;;;4.22;3.40;;;29.20;18.00;;;;;;4988924;28;20199;-90
2021/06/15 11:42:55;;;;;;;4.35;2.83;;;29.30;20.80;;;;;;5014196;28;20289;-87
2021/06/15 11:45:34;;;;;;;4.35;2.80;;;29.30;18.00;;;;;;5013615;28;20199;-88
2021/06/15 11:48:17;;;;;;;4.35;2.70;;;29.10;19.30;;;;;;5017296;28;20230;-88
2021/06/15 11:50:46;;;;;;;5.38;2.70;;;29.00;19.70;;;;;;5016491;28;20206;-88
2021/06/15 11:53:16;;;;;;;4.65;2.80;;;28.90;20.80;;;;;;5016320;28;20231;-88
2021/06/15 11:55:46;;;;;;;4.85;2.80;;;29.00;18.50;;;;;;5008051;28;20247;-88
2021/06/15 11:58:16;;;;;;;5.88;2.83;;;28.80;16.90;;;;;;5015836;28;20257;-88
2021/06/15 12:00:45;;;;;;;5.00;2.58;;;28.80;19.10;;;;;;5010571;28;20270;-88
2021/06/15 12:03:14;;;;;;;3.90;2.60;;;28.90;17.70;;;;;;4991174;28;20231;-88
2021/06/15 12:05:43;;;;;;;3.63;2.33;;;28.90;18.00;;;;;;5014915;28;20203;-90
2021/06/15 12:08:10;;;;;;;5.13;2.38;;;28.70;17.20;;;;;;5013012;28;20284;-88
2021/06/15 12:10:39;;;;;;;6.88;2.47;;;28.60;17.20;;;;;;5018849;28;20207;-87
2021/06/15 12:13:13;;;;;;;7.45;2.65;;;28.50;17.20;;;;;;5015208;28;20227;-88
2021/06/15 12:15:43;;;;;;;3.95;2.35;;;28.50;19.20;;;;;;4979672;28;20198;-87
2021/06/15 12:18:13;;;;;;;5.47;2.38;;;28.60;17.60;;;;;;5016116;28;20712;-88
2021/06/15 12:20:43;;;;;;;2.65;2.20;;;28.70;18.30;;;;;;5014170;28;20225;-88
2021/06/15 12:23:30;;;;;;;4.20;2.45;;;28.40;16.50;;;;;;5014727;28;20233;-88
2021/06/15 12:26:09;;;;;;;2.90;2.30;;;28.60;18.30;;;;;;5015372;28;20680;-87
2021/06/15 12:28:40;;;;;;;3.95;2.50;;;28.50;18.50;;;;;;5015835;28;20228;-90
2021/06/15 12:31:11;;;;;;;4.03;2.33;;;28.80;19.10;;;;;;4995716;28;20207;-87
2021/06/15 12:33:40;;;;;;;4.88;2.33;;;29.10;16.20;;;;;;5007948;28;20254;-87
2021/06/15 12:36:09;;;;;;;4.20;2.10;;;29.00;16.20;;;;;;5015247;28;20213;-88
2021/06/15 12:38:36;;;;;;;6.00;2.58;;;28.90;16.10;;;;;;5015051;28;20222;-87
2021/06/15 12:41:06;;;;;;;2.40;2.00;;;28.80;16.10;;;;;;5015405;28;20223;-88
2021/06/15 12:43:34;;;;;;;4.55;2.30;;;28.80;16.10;;;;;;4996278;28;20229;-87
2021/06/15 12:46:29;;;;;;;4.50;2.30;;;28.60;16.00;;;;;;5011525;28;20199;-88
2021/06/15 12:49:00;;;;;;;5.55;2.10;;;28.30;17.20;;;;;;5010680;28;20207;-88
2021/06/15 12:51:29;;;;;;;2.70;2.50;;;28.20;15.70;;;;;;5015933;28;20206;-88
2021/06/15 12:54:02;;;;;;;1.75;1.65;;;28.30;16.50;;;;;;5015811;28;20228;-88
2021/06/15 12:56:31;;;;;;;2.25;2.00;;;28.30;15.80;;;;;;5008282;28;20286;-88
2021/06/15 12:59:00;;;;;;;3.20;1.85;;;28.20;17.40;;;;;;5013655;28;20191;-87
2021/06/15 13:01:35;;;;;;;3.00;2.22;;;28.10;17.20;;;;;;4990187;28;20569;-87
2021/06/15 13:04:18;;;;;;;4.00;2.00;;;28.30;17.40;;;;;;5015324;28;20187;-88
2021/06/15 13:06:46;;;;;;;3.17;1.98;;;28.40;15.90;;;;;;5009796;28;20277;-88
2021/06/15 13:09:15;;;;;;;3.53;1.95;;;28.50;15.90;;;;;;5012006;28;20664;-88
2021/06/15 13:11:55;;;;;;;3.70;1.95;;;28.70;16.00;;;;;;4990079;28;21057;-89
2021/06/15 13:14:26;;;;;;;2.25;1.88;;;28.70;16.00;;;;;;5000436;28;20621;-87
2021/06/15 13:17:02;;;;;;;3.92;2.05;;;28.60;15.90;;;;;;5016584;28;20223;-88
2021/06/15 13:19:41;;;;;;;1.90;1.80;;;28.70;16.00;;;;;;5018562;28;20565;-87
2021/06/15 13:22:09;;;;;;;5.45;1.90;;;28.80;16.00;;;;;;5017255;28;20234;-87
2021/06/15 13:24:40;;;;;;;2.55;1.70;;;28.90;16.10;;;;;;5012166;28;20205;-87
2021/06/15 13:27:21;;;;;;;2.55;1.80;;;28.70;16.00;;;;;;5015343;28;20227;-87
2021/06/15 13:29:49;;;;;;;2.00;1.70;;;28.60;14.80;;;;;;5010772;28;20201;-90
2021/06/15 13:32:20;;;;;;;1.88;1.70;;;28.60;16.00;;;;;;4994263;28;20235;-87
2021/06/15 13:35:12;;;;;;;4.68;1.90;;;28.60;15.90;;;;;;5016965;28;20241;-87
2021/06/15 13:37:41;;;;;;;2.80;1.70;;;28.50;15.90;;;;;;5016672;28;20230;-88
2021/06/15 13:40:10;;;;;;;6.15;2.00;;;28.40;16.70;;;;;;5006484;28;20206;-88
2021/06/15 13:42:42;;;;;;;2.75;1.98;;;28.20;16.40;;;;;;5013694;28;20468;-87
2021/06/15 13:45:13;;;;;;;2.83;2.00;;;28.20;15.80;;;;;;5011170;28;20229;-88
2021/06/15 13:47:43;;;;;;;2.95;1.90;;;28.30;15.80;;;;;;5009819;28;20222;-85
2021/06/15 13:50:11;;;;;;;3.70;2.30;;;28.20;15.70;;;;;;5012065;28;20667;-88
2021/06/15 13:52:39;;;;;;;5.38;2.22;;;28.10;16.80;;;;;;5013093;28;20713;-84
2021/06/15 13:55:08;;;;;;;4.60;2.47;;;28.10;17.10;;;;;;5016924;28;20228;-88
2021/06/15 13:57:37;;;;;;;5.78;2.25;;;27.90;17.90;;;;;;5006807;28;20306;-87
2021/06/15 14:00:09;;;;;;;6.40;2.53;;;27.80;17.70;;;;;;5010254;28;20205;-86
2021/06/15 14:02:36;;;;;;;4.60;2.28;;;27.80;18.20;;;;;;4989481;28;20231;-88
2021/06/15 14:05:05;;;;;;;2.83;2.05;;;27.90;18.20;;;;;;5007545;28;20222;-87
2021/06/15 14:07:33;;;;;;;5.15;2.40;;;28.00;17.50;;;;;;4993494;28;20253;-87
2021/06/15 14:10:01;;;;;;;3.00;2.42;;;28.20;17.70;;;;;;5012092;28;20202;-87
2021/06/15 14:12:28;;;;;;;5.15;2.30;;;28.00;17.50;;;;;;5005662;28;20227;-87
2021/06/15 14:14:59;;;;;;;4.40;2.50;;;28.00;17.60;;;;;;5006436;28;20199;-88
2021/06/15 14:17:27;;;;;;;3.88;2.53;;;27.80;17.70;;;;;;4992372;28;20231;-85
2021/06/15 14:19:55;;;;;;;3.38;2.10;;;27.80;17.60;;;;;;5013879;28;20210;-87
2021/06/15 14:22:23;;;;;;;4.15;2.38;;;27.80;18.80;;;;;;5015916;28;20234;-84
2021/06/15 14:24:50;;;;;;;3.13;2.28;;;27.90;18.80;;;;;;5006938;28;20191;-88
2021/06/15 14:27:19;;;;;;;3.45;2.35;;;27.90;18.80;;;;;;5010985;28;20222;-88
2021/06/15 14:29:47;;;;;;;2.97;2.50;;;28.10;16.90;;;;;;5006731;28;20206;-84
2021/06/15 14:32:14;;;;;;;2.95;2.20;;;28.20;17.20;;;;;;5008017;28;20909;-86
2021/06/15 14:34:41;;;;;;;3.95;2.40;;;28.00;17.30;;;;;;5012538;28;20206;-87
2021/06/15 14:37:08;;;;;;;8.57;2.50;;;27.80;16.80;;;;;;5009223;28;20266;-89
2021/06/15 14:39:37;;;;;;;4.57;2.05;;;27.70;17.30;;;;;;5005087;28;20207;-84
2021/06/15 14:42:08;;;;;;;6.10;2.50;;;27.70;17.90;;;;;;4995589;28;20235;-90
2021/06/15 14:44:39;;;;;;;3.30;2.55;;;27.60;19.20;;;;;;5012890;28;20626;-90
2021/06/15 14:47:15;;;;;;;6.75;2.58;;;27.60;19.20;;;;;;5017891;28;20736;-89
2021/06/15 14:49:43;;;;;;;6.18;2.55;;;27.60;20.00;;;;;;5009394;28;20941;-89
2021/06/15 14:52:20;;;;;;;5.82;2.63;;;27.70;19.50;;;;;;5017781;28;20229;-86
2021/06/15 14:54:49;;;;;;;3.00;2.38;;;27.60;18.20;;;;;;5002839;28;20647;-88
2021/06/15 14:57:16;;;;;;;7.07;2.75;;;27.60;19.40;;;;;;5014433;28;20725;-88
2021/06/15 14:59:43;;;;;;;3.55;2.42;;;27.60;20.00;;;;;;4997809;28;20206;-85
2021/06/15 15:02:10;;;;;;;5.57;2.85;;;27.60;20.00;;;;;;5012942;28;20682;-87
2021/06/15 15:04:37;;;;;;;4.60;2.30;;;27.60;19.40;;;;;;5014880;28;20210;-85
2021/06/15 15:07:05;;;;;;;6.82;2.83;;;27.60;19.40;;;;;;5014571;28;20226;-88
2021/06/15 15:09:32;;;;;;;3.40;2.50;;;27.50;19.80;;;;;;5013463;28;20200;-89
2021/06/15 15:12:00;;;;;;;4.40;2.90;;;27.40;20.50;;;;;;5006023;28;20227;-89
2021/06/15 15:14:28;;;;;;;4.47;2.30;;;27.40;20.90;;;;;;4992615;28;20269;-88
2021/06/15 15:16:55;;;;;;;5.57;2.70;;;27.30;21.00;;;;;;4988396;28;20745;-88
2021/06/15 15:19:22;;;;;;;6.55;2.78;;;27.40;21.00;;;;;;5013303;28;20223;-88
2021/06/15 15:21:50;;;;;;;6.40;2.63;;;27.40;20.00;;;;;;4995166;28;20231;-88
2021/06/15 15:24:17;;;;;;;3.20;2.30;;;27.30;21.10;;;;;;5019990;28;20296;-87
2021/06/15 15:26:48;;;;;;;7.50;2.70;;;27.30;20.00;;;;;;5018974;28;20602;-88
2021/06/15 15:29:18;;;;;;;3.25;2.75;;;27.30;19.90;;;;;;4993916;28;20828;-88
2021/06/15 15:31:45;;;;;;;5.15;2.80;;;27.20;21.40;;;;;;4998360;28;20550;-88
2021/06/15 15:34:12;;;;;;;7.32;2.75;;;27.00;21.60;;;;;;5003212;28;20207;-90
2021/06/15 15:36:39;;;;;;;5.13;2.70;;;27.00;22.70;;;;;;5024313;28;20226;-90
2021/06/15 15:39:07;;;;;;;4.68;2.92;;;26.90;21.00;;;;;;4999915;28;20210;-88
2021/06/15 15:41:34;;;;;;;4.95;2.55;;;26.80;21.40;;;;;;5010814;28;20682;-89
2021/06/15 15:44:02;;;;;;;6.05;2.65;;;26.90;22.50;;;;;;5019348;28;20196;-89
2021/06/15 15:46:31;;;;;;;4.35;2.72;;;26.80;21.00;;;;;;5010817;28;20199;-89
2021/06/15 15:48:59;;;;;;;4.57;2.55;;;26.90;22.40;;;;;;5017562;28;20199;-88
2021/06/15 15:51:27;;;;;;;6.05;3.00;;;26.90;22.60;;;;;;5014919;28;20215;-89
2021/06/15 15:53:56;;;;;;;11.07;2.60;;;26.90;22.40;;;;;;5019413;28;20223;-88
2021/06/15 15:56:23;;;;;;;4.97;2.70;;;26.90;22.70;;;;;;4999157;28;20241;-88
2021/06/15 15:58:55;;;;;;;3.85;2.35;;;26.70;21.90;;;;;;5015670;28;20277;-89
2021/06/15 16:01:22;;;;;;;9.05;2.72;;;26.70;22.20;;;;;;5017025;28;20227;-89
2021/06/15 16:03:50;;;;;;;6.03;2.40;;;26.70;22.30;;;;;;5012059;28;20567;-89
2021/06/15 16:06:19;;;;;;;3.58;2.60;;;26.70;22.20;;;;;;5016686;28;20208;-90
2021/06/15 16:09:03;;;;;;;5.30;2.65;;;26.70;22.80;;;;;;5000872;28;20207;-90
2021/06/15 16:11:31;;;;;;;6.75;2.95;;;26.70;22.60;;;;;;5016686;28;20197;-89
2021/06/15 16:13:58;;;;;;;5.63;2.30;;;26.70;22.20;;;;;;5017614;28;20199;-88
2021/06/15 16:16:25;;;;;;;10.75;3.33;;;26.60;22.90;;;;;;5018437;28;20202;-88
2021/06/15 16:18:54;;;;;;;6.25;2.35;;;26.60;22.30;;;;;;5015648;28;20207;-89
2021/06/15 16:21:21;;;;;;;3.45;2.55;;;26.50;23.20;;;;;;5018991;28;20210;-89
2021/06/15 16:23:48;;;;;;;3.83;2.47;;;26.40;24.20;;;;;;5007598;28;20228;-88
2021/06/15 16:26:15;;;;;;;5.47;2.45;;;26.40;23.50;;;;;;5022013;28;20217;-87
2021/06/15 16:28:42;;;;;;;4.65;2.22;;;26.30;23.50;;;;;;5022744;28;20203;-88
2021/06/15 16:31:09;;;;;;;6.05;2.50;;;26.30;23.80;;;;;;5019579;28;20199;-89
2021/06/15 16:54:16;;;;;;;4.07;2.20;;;25.90;24.10;;;;;;5170816;22;20699;-91
2021/06/15 16:56:43;;;;;;;3.22;2.50;;;25.70;24.80;;;;;;5032790;28;20230;-90
2021/06/15 16:59:23;;;;;;;4.00;2.38;;;25.70;24.80;;;;;;5069727;28;20290;-89
2021/06/15 17:01:50;;;;;;;3.03;2.38;;;25.70;24.80;;;;;;5037067;28;20225;-90
2021/06/15 17:14:01;;;;;;;6.03;2.10;;;25.50;24.80;;;;;;4940811;28;20194;-88
2021/06/15 17:16:31;;;;;;;7.85;2.70;;;25.40;25.30;;;;;;4974788;28;20299;-90
2021/06/15 17:23:06;;;;;;;4.13;2.40;;;25.30;27.20;;;;;;4976129;28;20243;-91
2021/06/15 17:26:02;;;;;;;4.05;2.17;;;25.20;25.30;;;;;;4976798;28;20307;-90
2021/06/15 17:28:29;;;;;;;3.47;2.53;;;25.10;26.40;;;;;;4963697;28;20592;-90
2021/06/15 17:30:59;;;;;;;3.83;2.30;;;25.10;26.40;;;;;;4948199;28;20624;-91
2021/06/15 17:33:39;;;;;;;3.05;2.38;;;25.10;25.50;;;;;;5022071;28;20237;-90
2021/06/15 17:36:06;;;;;;;3.10;2.20;;;25.00;26.20;;;;;;5035044;28;20289;-90
2021/06/15 17:38:33;;;;;;;3.97;2.42;;;25.00;26.10;;;;;;5026630;28;20241;-91
2021/06/15 17:41:02;;;;;;;4.07;2.25;;;24.80;26.40;;;;;;5028796;28;20209;-91
2021/06/15 17:43:29;;;;;;;4.95;2.65;;;24.70;26.70;;;;;;5019642;28;20253;-91
2021/06/15 17:45:58;;;;;;;3.17;2.40;;;24.70;27.20;;;;;;5033156;28;20202;-91
2021/06/15 17:48:25;;;;;;;5.20;2.60;;;24.60;26.40;;;;;;5029513;28;20223;-91
2021/06/15 17:50:52;;;;;;;3.92;2.42;;;24.60;27.20;;;;;;5034133;28;20237;-89
2021/06/15 17:53:20;;;;;;;4.38;2.85;;;24.60;26.80;;;;;;5030687;28;20291;-87
2021/06/15 17:55:47;;;;;;;4.00;2.28;;;24.60;27.70;;;;;;5042062;28;20661;-86
2021/06/15 17:58:14;;;;;;;5.10;2.38;;;24.60;26.50;;;;;;5040192;28;20229;-88
2021/06/15 18:00:44;;;;;;;3.67;2.30;;;24.50;26.40;;;;;;5035441;28;20202;-90
2021/06/15 18:03:13;;;;;;;8.23;2.50;;;24.40;26.80;;;;;;5026030;28;20265;-88
2021/06/15 18:05:46;;;;;;;9.73;2.85;;;24.40;27.40;;;;;;5033133;28;20202;-89
2021/06/15 18:08:19;;;;;;;3.40;2.60;;;24.30;27.70;;;;;;5028060;28;20222;-89
2021/06/15 18:10:49;;;;;;;5.63;2.70;;;24.30;27.70;;;;;;5037150;28;20205;-89
2021/06/15 18:13:18;;;;;;;4.55;2.72;;;24.20;27.60;;;;;;5033240;28;20214;-89
2021/06/15 18:15:47;;;;;;;8.68;2.90;;;24.10;28.50;;;;;;5031602;28;20198;-88
2021/06/15 18:18:21;;;;;;;4.82;2.88;;;23.90;29.90;;;;;;5033838;28;20222;-89
2021/06/15 18:20:49;;;;;;;4.32;2.70;;;23.80;30.50;;;;;;5042376;28;20197;-90
2021/06/15 18:23:16;;;;;;;4.20;2.55;;;23.60;30.70;;;;;;5034211;28;20245;-85
2021/06/15 18:25:43;;;;;;;5.00;2.40;;;23.50;30.80;;;;;;5038999;28;20202;-85
2021/06/15 18:28:13;;;;;;;8.48;2.50;;;23.40;32.40;;;;;;5041279;28;20226;-87
2021/06/15 18:30:41;;;;;;;2.97;2.40;;;23.30;31.40;;;;;;5030266;28;20207;-87
2021/06/15 18:33:08;;;;;;;4.30;2.40;;;23.10;31.80;;;;;;5024811;28;20633;-86
2021/06/15 18:35:37;;;;;;;5.00;2.70;;;23.00;32.20;;;;;;5027513;28;20195;-87
2021/06/15 18:58:17;;;;;;;5.40;3.28;;;22.30;34.40;;;;;;5086988;22;20225;-87
2021/06/15 19:01:06;;;;;;;7.40;3.25;;;22.20;35.10;;;;;;5024538;28;20217;-87
2021/06/15 19:25:00;;;;;;;5.85;3.67;;;21.40;39.40;;;;;;5046897;28;20218;-86
2021/06/15 19:31:16;;;;;;;10.90;4.10;;;21.20;41.30;;;;;;5048687;28;20162;-86
2021/06/15 19:33:43;;;;;;;8.70;4.07;;;21.20;41.50;;;;;;5042112;28;20203;-86
2021/06/15 19:36:10;;;;;;;7.05;3.90;;;21.10;41.50;;;;;;5044755;28;20207;-87
2021/06/15 19:38:39;;;;;;;6.80;3.75;;;21.00;42.10;;;;;;5035503;28;20222;-86